This is the latest recevied weather packets stored in our database for station/object EB5AGF-13. If no packets are shown the sender has not sent any weather packets the latest 1 day(s).
| Time | Temp. | Humidity | Pressure | Rain* | Wind** | Luminosity | Snow |
|---|---|---|---|---|---|---|---|
| 1778086374 | 20° C | 69% | 1007.3 hPa | 0 mm | 1.79 m/s, 61° | 90 W/m² | - |
| 1778086072 | 20° C | 69% | 1007.4 hPa | 0 mm | 0.89 m/s, 67° | 97 W/m² | - |
| 1778082728 | 20.56° C | 68% | 1007.4 hPa | 0 mm | 2.68 m/s, 12° | 152 W/m² | - |
| 1778080592 | 21.11° C | 65% | 1007.3 hPa | 0 mm | 2.24 m/s, 23° | 173 W/m² | - |
| 1778080292 | 21.67° C | 63% | 1007.3 hPa | 0 mm | 1.34 m/s, 23° | 213 W/m² | - |
| 1778079692 | 21.67° C | 62% | 1007.2 hPa | 0 mm | 0.89 m/s, 43° | 274 W/m² | - |
| 1778078791 | 21.11° C | 57% | 1007.2 hPa | 0 mm | 1.34 m/s, 36° | 207 W/m² | - |
| 1778075446 | 22.78° C | 53% | 1007.3 hPa | 0 mm | 1.34 m/s, 145° | 405 W/m² | - |
| 1778074840 | 22.22° C | 58% | 1007.5 hPa | 0 mm | 2.24 m/s, 78° | 541 W/m² | - |
| 1778074534 | 22.78° C | 53% | 1007.3 hPa | 0 mm | 2.24 m/s, 53° | 597 W/m² | - |
| 1778074231 | 22.22° C | 56% | 1007.6 hPa | 0 mm | 1.34 m/s, 86° | 603 W/m² | - |
| 1778073927 | 22.78° C | 49% | 1007.5 hPa | 0 mm | 1.79 m/s, 57° | 523 W/m² | - |
| 1778071495 | 22.22° C | 65% | 1007.7 hPa | 0 mm | 1.79 m/s, 241° | 681 W/m² | - |
| 1778070886 | 22.22° C | 60% | 1007.7 hPa | 0 mm | 1.79 m/s, 69° | 668 W/m² | - |
| 1778070583 | 22.22° C | 65% | 1007.7 hPa | 0 mm | 2.68 m/s, 34° | 695 W/m² | - |
| 1778069367 | 22.22° C | 64% | 1008.2 hPa | 0 mm | 1.79 m/s, 46° | 743 W/m² | - |
| 1778068151 | 21.67° C | 70% | 1008.2 hPa | 0 mm | 1.79 m/s, 28° | 611 W/m² | - |
| 1778066023 | 21.11° C | 73% | 1008.4 hPa | 0 mm | 2.68 m/s, 48° | 762 W/m² | - |
| 1778064212 | 21.67° C | 72% | 1008.4 hPa | 0 mm | 2.24 m/s, 55° | 720 W/m² | - |
| 1778063911 | 21.11° C | 71% | 1008.7 hPa | 0 mm | 2.68 m/s, 9° | 683 W/m² | - |
| 1778063607 | 21.67° C | 71% | 1008.6 hPa | 0 mm | 3.58 m/s, 357° | 643 W/m² | - |
| 1778062999 | 21.11° C | 70% | 1008.5 hPa | 0 mm | 3.58 m/s, 25° | 181 W/m² | - |
| 1778062391 | 21.11° C | 71% | 1008.6 hPa | 0 mm | 2.68 m/s, 28° | 649 W/m² | - |
| 1778061783 | 21.67° C | 69% | 1008.6 hPa | 0 mm | 2.24 m/s, 78° | 584 W/m² | - |
| 1778061175 | 22.22° C | 66% | 1008.6 hPa | 0 mm | 2.68 m/s, 28° | 577 W/m² | - |
* Rain latest hour (hover to see other rain measurements)
** Current wind speed in m/s (hover to see current wind gust speed)